sensor_id;sensor_type;location;lat;lon;timestamp;P1;durP1;ratioP1;P2;durP2;ratioP2
948;SDS011;461;51.436;7.312;2022-07-22T00:02:25;12.53;;;11.30;;
948;SDS011;461;51.436;7.312;2022-07-22T00:04:51;13.43;;;11.87;;
948;SDS011;461;51.436;7.312;2022-07-22T00:07:17;11.97;;;10.67;;
948;SDS011;461;51.436;7.312;2022-07-22T00:09:43;16.93;;;11.70;;
948;SDS011;461;51.436;7.312;2022-07-22T00:12:10;12.23;;;11.03;;
948;SDS011;461;51.436;7.312;2022-07-22T00:14:36;13.50;;;11.70;;
948;SDS011;461;51.436;7.312;2022-07-22T00:17:02;15.30;;;12.40;;
948;SDS011;461;51.436;7.312;2022-07-22T00:19:28;15.23;;;10.73;;
948;SDS011;461;51.436;7.312;2022-07-22T00:21:54;13.70;;;11.67;;
948;SDS011;461;51.436;7.312;2022-07-22T00:24:20;14.27;;;10.77;;
948;SDS011;461;51.436;7.312;2022-07-22T00:26:47;7.50;;;6.80;;
948;SDS011;461;51.436;7.312;2022-07-22T00:29:13;8.13;;;6.23;;
948;SDS011;461;51.436;7.312;2022-07-22T00:31:39;9.13;;;7.17;;
948;SDS011;461;51.436;7.312;2022-07-22T00:34:05;8.17;;;6.47;;
948;SDS011;461;51.436;7.312;2022-07-22T00:36:31;6.10;;;5.50;;
948;SDS011;461;51.436;7.312;2022-07-22T00:38:58;11.20;;;5.67;;
948;SDS011;461;51.436;7.312;2022-07-22T00:41:24;7.87;;;6.23;;
948;SDS011;461;51.436;7.312;2022-07-22T00:44:01;7.73;;;6.90;;
948;SDS011;461;51.436;7.312;2022-07-22T00:46:27;8.03;;;6.77;;
948;SDS011;461;51.436;7.312;2022-07-22T00:48:54;9.03;;;8.17;;
948;SDS011;461;51.436;7.312;2022-07-22T00:51:21;9.43;;;8.53;;
948;SDS011;461;51.436;7.312;2022-07-22T00:53:47;10.73;;;9.73;;
948;SDS011;461;51.436;7.312;2022-07-22T00:56:14;12.07;;;10.97;;
948;SDS011;461;51.436;7.312;2022-07-22T00:58:40;11.43;;;10.33;;
948;SDS011;461;51.436;7.312;2022-07-22T01:01:06;12.57;;;10.03;;
948;SDS011;461;51.436;7.312;2022-07-22T01:03:32;14.20;;;11.00;;
948;SDS011;461;51.436;7.312;2022-07-22T01:05:59;12.03;;;10.60;;
948;SDS011;461;51.436;7.312;2022-07-22T01:08:25;10.57;;;9.57;;
948;SDS011;461;51.436;7.312;2022-07-22T01:10:51;12.00;;;10.90;;
948;SDS011;461;51.436;7.312;2022-07-22T01:13:17;12.07;;;10.37;;
948;SDS011;461;51.436;7.312;2022-07-22T01:15:43;14.33;;;10.07;;
948;SDS011;461;51.436;7.312;2022-07-22T01:18:10;13.57;;;9.90;;
948;SDS011;461;51.436;7.312;2022-07-22T01:20:36;11.73;;;10.43;;
948;SDS011;461;51.436;7.312;2022-07-22T01:23:02;15.03;;;10.10;;
948;SDS011;461;51.436;7.312;2022-07-22T01:25:28;13.40;;;10.87;;
948;SDS011;461;51.436;7.312;2022-07-22T01:27:54;11.30;;;10.07;;
948;SDS011;461;51.436;7.312;2022-07-22T01:30:22;13.00;;;10.10;;
948;SDS011;461;51.436;7.312;2022-07-22T01:32:48;15.30;;;10.57;;
948;SDS011;461;51.436;7.312;2022-07-22T01:35:14;10.57;;;8.50;;
948;SDS011;461;51.436;7.312;2022-07-22T01:37:40;10.90;;;8.87;;
948;SDS011;461;51.436;7.312;2022-07-22T01:40:07;13.70;;;9.23;;
948;SDS011;461;51.436;7.312;2022-07-22T01:42:33;13.90;;;9.00;;
948;SDS011;461;51.436;7.312;2022-07-22T01:44:59;11.73;;;8.47;;
948;SDS011;461;51.436;7.312;2022-07-22T01:47:25;11.50;;;7.90;;
948;SDS011;461;51.436;7.312;2022-07-22T01:49:51;22.90;;;8.40;;
948;SDS011;461;51.436;7.312;2022-07-22T01:52:17;11.50;;;8.47;;
948;SDS011;461;51.436;7.312;2022-07-22T01:54:43;10.40;;;9.30;;
948;SDS011;461;51.436;7.312;2022-07-22T01:57:09;11.00;;;9.90;;
948;SDS011;461;51.436;7.312;2022-07-22T01:59:35;12.30;;;9.37;;
948;SDS011;461;51.436;7.312;2022-07-22T02:02:01;14.33;;;8.53;;
948;SDS011;461;51.436;7.312;2022-07-22T02:04:28;10.80;;;9.70;;
948;SDS011;461;51.436;7.312;2022-07-22T02:06:55;11.60;;;9.87;;
948;SDS011;461;51.436;7.312;2022-07-22T02:09:21;14.33;;;9.90;;
948;SDS011;461;51.436;7.312;2022-07-22T02:11:47;14.10;;;10.53;;
948;SDS011;461;51.436;7.312;2022-07-22T02:14:13;14.33;;;10.50;;
948;SDS011;461;51.436;7.312;2022-07-22T02:16:39;14.13;;;10.53;;
948;SDS011;461;51.436;7.312;2022-07-22T02:19:05;12.30;;;10.87;;
948;SDS011;461;51.436;7.312;2022-07-22T02:21:31;15.00;;;11.17;;
948;SDS011;461;51.436;7.312;2022-07-22T02:23:57;14.00;;;10.40;;
948;SDS011;461;51.436;7.312;2022-07-22T02:26:24;17.40;;;11.00;;
948;SDS011;461;51.436;7.312;2022-07-22T02:28:50;14.00;;;11.47;;
948;SDS011;461;51.436;7.312;2022-07-22T02:31:16;13.17;;;10.30;;
948;SDS011;461;51.436;7.312;2022-07-22T02:33:42;12.73;;;11.50;;
948;SDS011;461;51.436;7.312;2022-07-22T02:36:08;12.30;;;10.60;;
948;SDS011;461;51.436;7.312;2022-07-22T02:38:34;12.87;;;11.03;;
948;SDS011;461;51.436;7.312;2022-07-22T02:41:00;14.97;;;11.37;;
948;SDS011;461;51.436;7.312;2022-07-22T02:43:26;12.80;;;10.43;;
948;SDS011;461;51.436;7.312;2022-07-22T02:45:53;18.90;;;11.83;;
948;SDS011;461;51.436;7.312;2022-07-22T02:48:19;11.93;;;10.67;;
948;SDS011;461;51.436;7.312;2022-07-22T02:50:45;12.53;;;10.77;;
948;SDS011;461;51.436;7.312;2022-07-22T02:53:12;19.30;;;11.80;;
948;SDS011;461;51.436;7.312;2022-07-22T02:55:38;14.37;;;11.53;;
948;SDS011;461;51.436;7.312;2022-07-22T02:58:05;16.33;;;11.37;;
948;SDS011;461;51.436;7.312;2022-07-22T03:00:31;11.80;;;9.77;;
948;SDS011;461;51.436;7.312;2022-07-22T03:02:57;17.23;;;10.50;;
948;SDS011;461;51.436;7.312;2022-07-22T03:05:23;15.23;;;10.63;;
948;SDS011;461;51.436;7.312;2022-07-22T03:07:49;11.67;;;10.47;;
948;SDS011;461;51.436;7.312;2022-07-22T03:10:15;14.97;;;11.50;;
948;SDS011;461;51.436;7.312;2022-07-22T03:12:41;16.63;;;10.53;;
948;SDS011;461;51.436;7.312;2022-07-22T03:15:08;14.60;;;10.77;;
948;SDS011;461;51.436;7.312;2022-07-22T03:17:35;24.13;;;11.53;;
948;SDS011;461;51.436;7.312;2022-07-22T03:20:02;12.70;;;8.67;;
948;SDS011;461;51.436;7.312;2022-07-22T03:22:29;21.33;;;9.50;;
948;SDS011;461;51.436;7.312;2022-07-22T03:24:55;11.20;;;8.27;;
948;SDS011;461;51.436;7.312;2022-07-22T03:27:21;11.50;;;8.90;;
948;SDS011;461;51.436;7.312;2022-07-22T03:29:47;7.80;;;5.93;;
948;SDS011;461;51.436;7.312;2022-07-22T03:32:13;7.40;;;5.43;;
948;SDS011;461;51.436;7.312;2022-07-22T03:34:39;10.10;;;5.70;;
948;SDS011;461;51.436;7.312;2022-07-22T03:37:05;8.90;;;6.53;;
948;SDS011;461;51.436;7.312;2022-07-22T03:39:31;9.13;;;5.37;;
948;SDS011;461;51.436;7.312;2022-07-22T03:41:57;9.97;;;4.97;;
948;SDS011;461;51.436;7.312;2022-07-22T03:44:24;7.57;;;4.87;;
948;SDS011;461;51.436;7.312;2022-07-22T03:46:50;9.43;;;5.10;;
948;SDS011;461;51.436;7.312;2022-07-22T03:49:16;10.97;;;5.43;;
948;SDS011;461;51.436;7.312;2022-07-22T03:51:42;9.80;;;5.73;;
948;SDS011;461;51.436;7.312;2022-07-22T03:54:08;8.90;;;6.00;;
948;SDS011;461;51.436;7.312;2022-07-22T03:56:34;11.80;;;6.60;;
948;SDS011;461;51.436;7.312;2022-07-22T03:59:01;14.37;;;5.83;;
948;SDS011;461;51.436;7.312;2022-07-22T04:01:27;14.43;;;6.90;;
948;SDS011;461;51.436;7.312;2022-07-22T04:03:53;9.33;;;6.90;;
948;SDS011;461;51.436;7.312;2022-07-22T04:06:19;11.13;;;5.83;;
948;SDS011;461;51.436;7.312;2022-07-22T04:08:45;10.30;;;6.70;;
948;SDS011;461;51.436;7.312;2022-07-22T04:11:11;10.43;;;6.53;;
948;SDS011;461;51.436;7.312;2022-07-22T04:13:37;8.53;;;7.20;;
948;SDS011;461;51.436;7.312;2022-07-22T04:16:03;11.87;;;6.47;;
948;SDS011;461;51.436;7.312;2022-07-22T04:18:33;14.53;;;6.70;;
948;SDS011;461;51.436;7.312;2022-07-22T04:20:59;12.17;;;6.13;;
948;SDS011;461;51.436;7.312;2022-07-22T04:23:25;15.40;;;6.40;;
948;SDS011;461;51.436;7.312;2022-07-22T04:25:51;9.07;;;6.27;;
948;SDS011;461;51.436;7.312;2022-07-22T04:28:17;9.83;;;6.40;;
948;SDS011;461;51.436;7.312;2022-07-22T04:30:43;14.13;;;6.70;;
948;SDS011;461;51.436;7.312;2022-07-22T04:33:09;10.13;;;6.30;;
948;SDS011;461;51.436;7.312;2022-07-22T04:35:36;9.13;;;5.77;;
948;SDS011;461;51.436;7.312;2022-07-22T04:38:02;10.40;;;6.73;;
948;SDS011;461;51.436;7.312;2022-07-22T04:40:28;9.27;;;6.13;;
948;SDS011;461;51.436;7.312;2022-07-22T04:42:54;19.43;;;7.70;;
948;SDS011;461;51.436;7.312;2022-07-22T04:45:20;10.07;;;6.80;;
948;SDS011;461;51.436;7.312;2022-07-22T04:47:46;10.53;;;6.80;;
948;SDS011;461;51.436;7.312;2022-07-22T04:50:12;11.77;;;6.73;;
948;SDS011;461;51.436;7.312;2022-07-22T04:52:38;10.73;;;6.07;;
948;SDS011;461;51.436;7.312;2022-07-22T04:55:05;9.70;;;6.20;;
948;SDS011;461;51.436;7.312;2022-07-22T04:57:31;10.47;;;6.97;;
948;SDS011;461;51.436;7.312;2022-07-22T04:59:57;8.13;;;5.87;;
948;SDS011;461;51.436;7.312;2022-07-22T05:02:23;9.20;;;5.80;;
948;SDS011;461;51.436;7.312;2022-07-22T05:04:49;13.90;;;6.57;;
948;SDS011;461;51.436;7.312;2022-07-22T05:07:15;10.40;;;7.00;;
948;SDS011;461;51.436;7.312;2022-07-22T05:09:41;14.33;;;5.97;;
948;SDS011;461;51.436;7.312;2022-07-22T05:12:07;10.60;;;6.63;;
948;SDS011;461;51.436;7.312;2022-07-22T05:14:34;8.60;;;6.10;;
948;SDS011;461;51.436;7.312;2022-07-22T05:17:00;10.23;;;6.67;;
948;SDS011;461;51.436;7.312;2022-07-22T05:19:26;15.33;;;7.17;;
948;SDS011;461;51.436;7.312;2022-07-22T05:21:52;10.77;;;6.70;;
948;SDS011;461;51.436;7.312;2022-07-22T05:24:18;10.83;;;6.37;;
948;SDS011;461;51.436;7.312;2022-07-22T05:26:44;14.23;;;7.00;;
948;SDS011;461;51.436;7.312;2022-07-22T05:29:10;13.90;;;7.87;;
948;SDS011;461;51.436;7.312;2022-07-22T05:31:36;10.17;;;6.23;;
948;SDS011;461;51.436;7.312;2022-07-22T05:34:02;12.90;;;6.03;;
948;SDS011;461;51.436;7.312;2022-07-22T05:36:28;12.13;;;7.10;;
948;SDS011;461;51.436;7.312;2022-07-22T05:38:55;8.03;;;6.90;;
948;SDS011;461;51.436;7.312;2022-07-22T05:41:21;8.43;;;6.50;;
948;SDS011;461;51.436;7.312;2022-07-22T05:43:48;9.87;;;6.67;;
948;SDS011;461;51.436;7.312;2022-07-22T05:46:14;10.47;;;7.40;;
948;SDS011;461;51.436;7.312;2022-07-22T05:48:40;14.40;;;7.37;;
948;SDS011;461;51.436;7.312;2022-07-22T05:51:12;12.80;;;6.03;;
948;SDS011;461;51.436;7.312;2022-07-22T05:53:39;12.43;;;6.57;;
948;SDS011;461;51.436;7.312;2022-07-22T05:56:05;9.90;;;5.20;;
948;SDS011;461;51.436;7.312;2022-07-22T05:58:32;7.50;;;5.20;;
948;SDS011;461;51.436;7.312;2022-07-22T06:00:58;5.23;;;4.17;;
948;SDS011;461;51.436;7.312;2022-07-22T06:03:24;9.13;;;4.90;;
948;SDS011;461;51.436;7.312;2022-07-22T06:05:50;6.80;;;4.07;;
948;SDS011;461;51.436;7.312;2022-07-22T06:08:16;8.70;;;4.73;;
948;SDS011;461;51.436;7.312;2022-07-22T06:10:43;8.50;;;4.30;;
948;SDS011;461;51.436;7.312;2022-07-22T06:13:09;7.90;;;4.63;;
948;SDS011;461;51.436;7.312;2022-07-22T06:15:35;7.20;;;4.90;;
948;SDS011;461;51.436;7.312;2022-07-22T06:18:01;7.40;;;4.47;;
948;SDS011;461;51.436;7.312;2022-07-22T06:20:27;8.17;;;4.47;;
948;SDS011;461;51.436;7.312;2022-07-22T06:22:53;8.80;;;4.07;;
948;SDS011;461;51.436;7.312;2022-07-22T06:25:19;9.17;;;4.63;;
948;SDS011;461;51.436;7.312;2022-07-22T06:27:45;10.07;;;5.73;;
948;SDS011;461;51.436;7.312;2022-07-22T06:30:11;8.30;;;4.57;;
948;SDS011;461;51.436;7.312;2022-07-22T06:32:37;11.67;;;3.80;;
948;SDS011;461;51.436;7.312;2022-07-22T06:35:04;10.47;;;5.30;;
948;SDS011;461;51.436;7.312;2022-07-22T06:37:30;5.57;;;3.70;;
948;SDS011;461;51.436;7.312;2022-07-22T06:39:56;4.70;;;3.37;;
948;SDS011;461;51.436;7.312;2022-07-22T06:42:22;7.87;;;4.17;;
948;SDS011;461;51.436;7.312;2022-07-22T06:44:48;9.30;;;4.33;;
948;SDS011;461;51.436;7.312;2022-07-22T06:47:14;4.47;;;3.97;;
948;SDS011;461;51.436;7.312;2022-07-22T06:49:40;4.63;;;3.70;;
948;SDS011;461;51.436;7.312;2022-07-22T06:52:06;10.40;;;3.30;;
948;SDS011;461;51.436;7.312;2022-07-22T06:54:32;8.73;;;4.20;;
948;SDS011;461;51.436;7.312;2022-07-22T06:56:59;5.00;;;3.97;;
948;SDS011;461;51.436;7.312;2022-07-22T06:59:25;7.33;;;4.10;;
948;SDS011;461;51.436;7.312;2022-07-22T07:01:51;6.90;;;4.00;;
948;SDS011;461;51.436;7.312;2022-07-22T07:04:17;6.93;;;3.30;;
948;SDS011;461;51.436;7.312;2022-07-22T07:06:43;6.93;;;4.00;;
948;SDS011;461;51.436;7.312;2022-07-22T07:09:09;6.40;;;4.07;;
948;SDS011;461;51.436;7.312;2022-07-22T07:11:36;7.20;;;3.30;;
948;SDS011;461;51.436;7.312;2022-07-22T07:14:03;8.97;;;3.40;;
948;SDS011;461;51.436;7.312;2022-07-22T07:16:29;5.97;;;2.77;;
948;SDS011;461;51.436;7.312;2022-07-22T07:18:55;10.70;;;3.20;;
948;SDS011;461;51.436;7.312;2022-07-22T07:21:21;5.80;;;2.67;;
948;SDS011;461;51.436;7.312;2022-07-22T07:23:47;5.50;;;2.93;;
948;SDS011;461;51.436;7.312;2022-07-22T07:26:13;5.40;;;2.30;;
948;SDS011;461;51.436;7.312;2022-07-22T07:28:40;6.77;;;2.93;;
948;SDS011;461;51.436;7.312;2022-07-22T07:31:06;5.67;;;2.90;;
948;SDS011;461;51.436;7.312;2022-07-22T07:33:33;5.90;;;3.60;;
948;SDS011;461;51.436;7.312;2022-07-22T07:36:00;4.40;;;3.90;;
948;SDS011;461;51.436;7.312;2022-07-22T07:38:26;11.13;;;3.47;;
948;SDS011;461;51.436;7.312;2022-07-22T07:40:52;7.60;;;3.10;;
948;SDS011;461;51.436;7.312;2022-07-22T07:43:18;11.67;;;4.60;;
948;SDS011;461;51.436;7.312;2022-07-22T07:45:45;7.20;;;5.30;;
948;SDS011;461;51.436;7.312;2022-07-22T07:48:11;11.80;;;5.17;;
948;SDS011;461;51.436;7.312;2022-07-22T07:50:38;6.73;;;5.40;;
948;SDS011;461;51.436;7.312;2022-07-22T07:53:04;7.17;;;5.33;;
948;SDS011;461;51.436;7.312;2022-07-22T07:55:31;10.57;;;5.50;;
948;SDS011;461;51.436;7.312;2022-07-22T07:58:05;11.57;;;5.57;;
948;SDS011;461;51.436;7.312;2022-07-22T08:00:31;6.50;;;5.60;;
948;SDS011;461;51.436;7.312;2022-07-22T08:02:59;8.00;;;5.70;;
948;SDS011;461;51.436;7.312;2022-07-22T08:05:28;6.90;;;6.20;;
948;SDS011;461;51.436;7.312;2022-07-22T08:07:54;8.23;;;6.33;;
948;SDS011;461;51.436;7.312;2022-07-22T08:10:21;6.93;;;6.17;;
948;SDS011;461;51.436;7.312;2022-07-22T08:12:47;11.63;;;6.93;;
948;SDS011;461;51.436;7.312;2022-07-22T08:15:14;6.03;;;5.43;;
948;SDS011;461;51.436;7.312;2022-07-22T08:17:40;8.17;;;6.67;;
948;SDS011;461;51.436;7.312;2022-07-22T08:20:07;9.67;;;6.50;;
948;SDS011;461;51.436;7.312;2022-07-22T08:22:33;11.87;;;6.27;;
948;SDS011;461;51.436;7.312;2022-07-22T08:24:59;8.57;;;6.23;;
948;SDS011;461;51.436;7.312;2022-07-22T09:28:17;14.23;;;10.00;;
948;SDS011;461;51.436;7.312;2022-07-22T09:30:48;12.67;;;9.50;;
948;SDS011;461;51.436;7.312;2022-07-22T09:33:24;11.57;;;10.47;;
948;SDS011;461;51.436;7.312;2022-07-22T09:38:28;13.90;;;12.07;;
948;SDS011;461;51.436;7.312;2022-07-22T09:40:54;12.83;;;10.83;;
948;SDS011;461;51.436;7.312;2022-07-22T09:43:37;10.20;;;9.10;;
948;SDS011;461;51.436;7.312;2022-07-22T09:46:03;12.97;;;9.80;;
948;SDS011;461;51.436;7.312;2022-07-22T09:48:30;12.60;;;10.13;;
948;SDS011;461;51.436;7.312;2022-07-22T09:50:56;10.70;;;9.67;;
948;SDS011;461;51.436;7.312;2022-07-22T09:53:25;11.33;;;10.23;;
948;SDS011;461;51.436;7.312;2022-07-22T09:55:53;11.37;;;10.17;;
948;SDS011;461;51.436;7.312;2022-07-22T09:58:19;11.37;;;10.20;;
948;SDS011;461;51.436;7.312;2022-07-22T10:00:48;9.60;;;8.60;;
948;SDS011;461;51.436;7.312;2022-07-22T10:09:14;11.13;;;10.03;;
948;SDS011;461;51.436;7.312;2022-07-22T10:14:58;9.67;;;8.73;;
948;SDS011;461;51.436;7.312;2022-07-22T10:20:26;10.93;;;9.73;;
948;SDS011;461;51.436;7.312;2022-07-22T10:23:07;10.80;;;9.70;;
948;SDS011;461;51.436;7.312;2022-07-22T10:25:51;11.43;;;9.10;;
948;SDS011;461;51.436;7.312;2022-07-22T10:28:22;12.13;;;10.27;;
948;SDS011;461;51.436;7.312;2022-07-22T10:33:28;13.10;;;10.37;;
948;SDS011;461;51.436;7.312;2022-07-22T10:41:44;11.70;;;9.63;;
948;SDS011;461;51.436;7.312;2022-07-22T10:44:11;11.50;;;9.93;;
948;SDS011;461;51.436;7.312;2022-07-22T10:46:47;11.37;;;10.20;;
948;SDS011;461;51.436;7.312;2022-07-22T10:49:15;10.90;;;9.73;;
948;SDS011;461;51.436;7.312;2022-07-22T10:54:27;10.53;;;9.43;;
948;SDS011;461;51.436;7.312;2022-07-22T10:56:53;11.63;;;8.87;;
948;SDS011;461;51.436;7.312;2022-07-22T10:59:20;12.10;;;10.10;;
948;SDS011;461;51.436;7.312;2022-07-22T11:01:50;11.50;;;10.30;;
948;SDS011;461;51.436;7.312;2022-07-22T11:04:17;12.93;;;10.10;;
948;SDS011;461;51.436;7.312;2022-07-22T11:06:48;11.63;;;9.87;;
948;SDS011;461;51.436;7.312;2022-07-22T11:09:15;16.60;;;12.00;;
948;SDS011;461;51.436;7.312;2022-07-22T11:11:45;15.80;;;11.77;;
948;SDS011;461;51.436;7.312;2022-07-22T11:14:31;11.63;;;10.33;;
948;SDS011;461;51.436;7.312;2022-07-22T11:19:27;12.17;;;10.50;;
948;SDS011;461;51.436;7.312;2022-07-22T11:21:55;12.10;;;10.87;;
948;SDS011;461;51.436;7.312;2022-07-22T11:24:22;11.80;;;10.30;;
948;SDS011;461;51.436;7.312;2022-07-22T11:26:49;14.20;;;10.50;;
948;SDS011;461;51.436;7.312;2022-07-22T11:29:35;12.33;;;10.87;;
948;SDS011;461;51.436;7.312;2022-07-22T11:32:03;11.83;;;10.50;;
948;SDS011;461;51.436;7.312;2022-07-22T11:34:30;11.40;;;10.30;;
948;SDS011;461;51.436;7.312;2022-07-22T11:36:56;12.47;;;10.50;;
948;SDS011;461;51.436;7.312;2022-07-22T11:39:24;10.13;;;9.13;;
948;SDS011;461;51.436;7.312;2022-07-22T11:41:51;11.80;;;10.60;;
948;SDS011;461;51.436;7.312;2022-07-22T11:44:18;11.77;;;10.27;;
948;SDS011;461;51.436;7.312;2022-07-22T11:46:44;11.33;;;10.23;;
948;SDS011;461;51.436;7.312;2022-07-22T11:49:12;11.70;;;10.50;;
948;SDS011;461;51.436;7.312;2022-07-22T11:51:39;13.70;;;10.23;;
948;SDS011;461;51.436;7.312;2022-07-22T11:54:05;12.40;;;10.07;;
948;SDS011;461;51.436;7.312;2022-07-22T11:56:32;10.60;;;9.60;;
948;SDS011;461;51.436;7.312;2022-07-22T11:58:58;15.13;;;10.23;;
948;SDS011;461;51.436;7.312;2022-07-22T12:01:27;10.80;;;9.00;;
948;SDS011;461;51.436;7.312;2022-07-22T12:03:55;11.93;;;9.57;;
948;SDS011;461;51.436;7.312;2022-07-22T12:06:23;11.50;;;10.40;;
948;SDS011;461;51.436;7.312;2022-07-22T12:08:53;13.40;;;9.43;;
948;SDS011;461;51.436;7.312;2022-07-22T12:11:20;13.50;;;9.87;;
948;SDS011;461;51.436;7.312;2022-07-22T12:13:48;10.57;;;9.33;;
948;SDS011;461;51.436;7.312;2022-07-22T12:16:27;10.47;;;9.40;;
948;SDS011;461;51.436;7.312;2022-07-22T12:21:23;10.83;;;9.60;;
948;SDS011;461;51.436;7.312;2022-07-22T12:23:50;12.53;;;9.50;;
948;SDS011;461;51.436;7.312;2022-07-22T12:26:17;9.67;;;8.70;;
948;SDS011;461;51.436;7.312;2022-07-22T12:28:43;10.47;;;8.93;;
948;SDS011;461;51.436;7.312;2022-07-22T12:31:09;10.50;;;9.50;;
948;SDS011;461;51.436;7.312;2022-07-22T12:33:35;10.47;;;9.47;;
948;SDS011;461;51.436;7.312;2022-07-22T12:36:05;13.50;;;9.50;;
948;SDS011;461;51.436;7.312;2022-07-22T12:38:31;11.37;;;9.07;;
948;SDS011;461;51.436;7.312;2022-07-22T12:43:42;10.27;;;9.27;;
948;SDS011;461;51.436;7.312;2022-07-22T12:46:09;11.37;;;9.43;;
948;SDS011;461;51.436;7.312;2022-07-22T12:48:35;10.90;;;9.90;;
948;SDS011;461;51.436;7.312;2022-07-22T12:51:01;9.90;;;8.90;;
948;SDS011;461;51.436;7.312;2022-07-22T12:53:27;12.50;;;9.30;;
948;SDS011;461;51.436;7.312;2022-07-22T12:55:57;10.33;;;9.20;;
948;SDS011;461;51.436;7.312;2022-07-22T12:58:29;9.47;;;8.53;;
948;SDS011;461;51.436;7.312;2022-07-22T13:00:57;10.43;;;9.37;;
948;SDS011;461;51.436;7.312;2022-07-22T13:03:24;12.90;;;9.70;;
948;SDS011;461;51.436;7.312;2022-07-22T13:05:58;11.03;;;9.60;;
948;SDS011;461;51.436;7.312;2022-07-22T13:08:24;9.60;;;8.60;;
948;SDS011;461;51.436;7.312;2022-07-22T13:10:51;10.67;;;9.43;;
948;SDS011;461;51.436;7.312;2022-07-22T13:13:18;12.57;;;9.60;;
948;SDS011;461;51.436;7.312;2022-07-22T13:15:44;10.67;;;9.57;;
948;SDS011;461;51.436;7.312;2022-07-22T13:18:11;11.50;;;8.80;;
948;SDS011;461;51.436;7.312;2022-07-22T13:20:37;13.63;;;11.03;;
948;SDS011;461;51.436;7.312;2022-07-22T13:23:03;15.33;;;12.20;;
948;SDS011;461;51.436;7.312;2022-07-22T13:25:30;14.10;;;10.60;;
948;SDS011;461;51.436;7.312;2022-07-22T13:27:57;12.63;;;10.70;;
948;SDS011;461;51.436;7.312;2022-07-22T13:30:23;16.33;;;10.20;;
948;SDS011;461;51.436;7.312;2022-07-22T13:32:49;12.60;;;11.30;;
948;SDS011;461;51.436;7.312;2022-07-22T13:35:16;14.20;;;10.73;;
948;SDS011;461;51.436;7.312;2022-07-22T13:37:43;11.97;;;10.33;;
948;SDS011;461;51.436;7.312;2022-07-22T13:40:09;12.20;;;11.00;;
948;SDS011;461;51.436;7.312;2022-07-22T13:45:57;11.87;;;10.50;;
948;SDS011;461;51.436;7.312;2022-07-22T13:48:23;11.07;;;10.03;;
948;SDS011;461;51.436;7.312;2022-07-22T13:50:52;10.23;;;9.27;;
948;SDS011;461;51.436;7.312;2022-07-22T14:14:09;13.37;;;11.97;;
948;SDS011;461;51.436;7.312;2022-07-22T14:16:35;18.07;;;12.87;;
948;SDS011;461;51.436;7.312;2022-07-22T14:22:06;12.53;;;11.23;;
948;SDS011;461;51.436;7.312;2022-07-22T14:24:33;14.47;;;12.00;;
948;SDS011;461;51.436;7.312;2022-07-22T14:30:29;14.10;;;12.60;;
948;SDS011;461;51.436;7.312;2022-07-22T14:33:02;15.40;;;13.80;;
948;SDS011;461;51.436;7.312;2022-07-22T14:35:36;13.40;;;12.00;;
948;SDS011;461;51.436;7.312;2022-07-22T14:38:44;13.00;;;11.70;;
948;SDS011;461;51.436;7.312;2022-07-22T14:41:33;17.07;;;14.70;;
948;SDS011;461;51.436;7.312;2022-07-22T15:21:53;16.90;;;14.30;;
948;SDS011;461;51.436;7.312;2022-07-22T18:15:00;12.07;;;10.63;;
948;SDS011;461;51.436;7.312;2022-07-22T18:17:36;12.77;;;11.60;;
948;SDS011;461;51.436;7.312;2022-07-22T18:20:05;13.27;;;11.40;;
948;SDS011;461;51.436;7.312;2022-07-22T18:22:32;12.07;;;10.50;;
948;SDS011;461;51.436;7.312;2022-07-22T18:25:01;12.37;;;10.87;;
948;SDS011;461;51.436;7.312;2022-07-22T18:27:27;13.93;;;11.37;;
948;SDS011;461;51.436;7.312;2022-07-22T18:29:54;12.20;;;10.90;;
948;SDS011;461;51.436;7.312;2022-07-22T18:32:26;14.30;;;11.13;;
948;SDS011;461;51.436;7.312;2022-07-22T18:34:55;12.27;;;11.07;;
948;SDS011;461;51.436;7.312;2022-07-22T18:37:21;15.63;;;10.93;;
948;SDS011;461;51.436;7.312;2022-07-22T18:39:47;13.03;;;11.73;;
948;SDS011;461;51.436;7.312;2022-07-22T18:42:14;17.70;;;12.10;;
948;SDS011;461;51.436;7.312;2022-07-22T18:44:45;15.20;;;12.10;;
948;SDS011;461;51.436;7.312;2022-07-22T18:47:20;12.70;;;10.00;;
948;SDS011;461;51.436;7.312;2022-07-22T18:49:52;12.33;;;11.03;;
948;SDS011;461;51.436;7.312;2022-07-22T18:52:20;14.60;;;11.57;;
948;SDS011;461;51.436;7.312;2022-07-22T18:54:55;11.87;;;10.77;;
948;SDS011;461;51.436;7.312;2022-07-22T19:00:46;13.07;;;11.77;;
948;SDS011;461;51.436;7.312;2022-07-22T19:06:36;13.07;;;11.73;;
948;SDS011;461;51.436;7.312;2022-07-22T19:09:22;14.60;;;11.37;;
948;SDS011;461;51.436;7.312;2022-07-22T19:59:08;14.90;;;11.17;;
948;SDS011;461;51.436;7.312;2022-07-22T20:56:23;22.20;;;16.83;;
948;SDS011;461;51.436;7.312;2022-07-22T21:02:21;19.13;;;17.10;;
948;SDS011;461;51.436;7.312;2022-07-22T21:04:53;20.60;;;17.37;;
948;SDS011;461;51.436;7.312;2022-07-22T21:07:27;22.03;;;16.00;;
948;SDS011;461;51.436;7.312;2022-07-22T21:09:54;20.03;;;16.10;;
948;SDS011;461;51.436;7.312;2022-07-22T21:12:23;21.03;;;16.07;;
948;SDS011;461;51.436;7.312;2022-07-22T21:17:38;17.43;;;15.63;;
948;SDS011;461;51.436;7.312;2022-07-22T21:20:10;19.13;;;15.83;;
948;SDS011;461;51.436;7.312;2022-07-22T21:22:41;18.63;;;15.77;;
948;SDS011;461;51.436;7.312;2022-07-22T21:25:10;18.87;;;15.87;;
948;SDS011;461;51.436;7.312;2022-07-22T21:48:47;17.80;;;15.40;;
948;SDS011;461;51.436;7.312;2022-07-22T21:51:13;23.87;;;17.30;;
948;SDS011;461;51.436;7.312;2022-07-22T21:53:39;21.17;;;16.93;;
948;SDS011;461;51.436;7.312;2022-07-22T21:56:06;25.13;;;15.47;;
948;SDS011;461;51.436;7.312;2022-07-22T21:58:51;20.30;;;16.70;;
948;SDS011;461;51.436;7.312;2022-07-22T22:01:17;22.03;;;17.00;;
948;SDS011;461;51.436;7.312;2022-07-22T22:03:43;20.23;;;15.60;;
948;SDS011;461;51.436;7.312;2022-07-22T22:06:09;19.83;;;15.20;;
948;SDS011;461;51.436;7.312;2022-07-22T22:08:36;26.00;;;15.73;;
948;SDS011;461;51.436;7.312;2022-07-22T22:11:02;19.40;;;14.97;;
948;SDS011;461;51.436;7.312;2022-07-22T22:13:29;19.90;;;14.80;;
948;SDS011;461;51.436;7.312;2022-07-22T22:15:56;18.63;;;13.83;;
948;SDS011;461;51.436;7.312;2022-07-22T22:18:24;17.17;;;14.77;;
948;SDS011;461;51.436;7.312;2022-07-22T22:20:50;18.83;;;15.03;;
948;SDS011;461;51.436;7.312;2022-07-22T22:23:16;18.27;;;14.47;;
948;SDS011;461;51.436;7.312;2022-07-22T22:25:43;17.90;;;13.27;;
948;SDS011;461;51.436;7.312;2022-07-22T22:28:09;15.30;;;12.20;;
948;SDS011;461;51.436;7.312;2022-07-22T22:30:35;18.50;;;11.90;;
948;SDS011;461;51.436;7.312;2022-07-22T22:33:01;14.63;;;10.47;;
948;SDS011;461;51.436;7.312;2022-07-22T22:35:27;14.80;;;10.10;;
948;SDS011;461;51.436;7.312;2022-07-22T22:37:53;15.13;;;10.50;;
948;SDS011;461;51.436;7.312;2022-07-22T22:40:20;11.20;;;8.80;;
948;SDS011;461;51.436;7.312;2022-07-22T22:42:46;12.00;;;9.27;;
948;SDS011;461;51.436;7.312;2022-07-22T22:45:12;13.80;;;8.77;;
948;SDS011;461;51.436;7.312;2022-07-22T22:47:41;11.23;;;8.43;;
948;SDS011;461;51.436;7.312;2022-07-22T22:50:07;12.37;;;8.70;;
948;SDS011;461;51.436;7.312;2022-07-22T22:52:34;16.20;;;9.43;;
948;SDS011;461;51.436;7.312;2022-07-22T22:55:00;10.30;;;9.03;;
948;SDS011;461;51.436;7.312;2022-07-22T22:57:26;11.53;;;8.57;;
948;SDS011;461;51.436;7.312;2022-07-22T22:59:52;8.90;;;8.00;;
948;SDS011;461;51.436;7.312;2022-07-22T23:02:18;11.83;;;7.80;;
948;SDS011;461;51.436;7.312;2022-07-22T23:04:44;14.23;;;8.77;;
948;SDS011;461;51.436;7.312;2022-07-22T23:07:10;12.67;;;7.50;;
948;SDS011;461;51.436;7.312;2022-07-22T23:09:38;15.17;;;9.20;;
948;SDS011;461;51.436;7.312;2022-07-22T23:12:04;10.60;;;8.77;;
948;SDS011;461;51.436;7.312;2022-07-22T23:14:33;10.20;;;8.37;;
948;SDS011;461;51.436;7.312;2022-07-22T23:16:59;10.33;;;8.60;;
948;SDS011;461;51.436;7.312;2022-07-22T23:19:26;15.20;;;8.80;;